createdAt,value
2016-05-28T00:00:21.266Z,15.49
2016-05-28T00:01:21.316Z,15.54
2016-05-28T00:02:21.319Z,15.43
2016-05-28T00:03:21.354Z,15.49
2016-05-28T00:04:21.762Z,15.43
2016-05-28T00:05:21.374Z,15.37
2016-05-28T00:06:21.393Z,15.37
2016-05-28T00:07:21.410Z,15.37
2016-05-28T00:08:21.430Z,15.35
2016-05-28T00:09:21.291Z,15.28
2016-05-28T00:10:21.465Z,15.31
2016-05-28T00:11:21.501Z,15.29
2016-05-28T00:12:21.518Z,15.33
2016-05-28T00:13:21.537Z,15.33
2016-05-28T00:14:21.555Z,15.33
2016-05-28T00:15:21.573Z,15.28
2016-05-28T00:16:21.592Z,15.19
2016-05-28T00:17:21.609Z,15.19
2016-05-28T00:18:21.612Z,15.17
2016-05-28T00:19:21.693Z,15.22
2016-05-28T00:20:22.525Z,15.22
2016-05-28T00:21:21.527Z,15.18
2016-05-28T00:22:21.717Z,15.11
2016-05-28T00:23:21.736Z,15.09
2016-05-28T00:24:21.739Z,15.07
2016-05-28T00:25:21.772Z,15.17
2016-05-28T00:26:21.633Z,15.07
2016-05-28T00:27:21.809Z,15.07
2016-05-28T00:28:21.827Z,15.09
2016-05-28T00:29:21.845Z,15.07
2016-05-28T00:30:21.708Z,15.1
2016-05-28T00:31:21.710Z,15.04
2016-05-28T00:32:21.885Z,15.06
2016-05-28T00:33:21.919Z,15.1
2016-05-28T00:34:21.937Z,15.02
2016-05-28T00:35:21.799Z,15.06
2016-05-28T00:36:21.974Z,15.07
2016-05-28T00:37:21.992Z,15.09
2016-05-28T00:38:22.026Z,15.06
2016-05-28T00:39:22.029Z,15.1
2016-05-28T00:40:21.890Z,15.14
2016-05-28T00:41:22.065Z,15.21
2016-05-28T00:42:22.084Z,15.22
2016-05-28T00:43:21.946Z,15.18
2016-05-28T00:44:22.167Z,15.27
2016-05-28T00:45:22.154Z,15.24
2016-05-28T00:46:22.016Z,15.15
2016-05-28T00:47:22.207Z,15.21
2016-05-28T00:48:22.209Z,15.19
2016-05-28T00:49:22.243Z,15.11
2016-05-28T00:50:22.261Z,15.22
2016-05-28T00:51:22.108Z,15.06
2016-05-28T00:52:22.267Z,15.09
2016-05-28T00:53:22.300Z,15.18
2016-05-28T00:54:22.334Z,15.07
2016-05-28T00:55:22.337Z,14.99
2016-05-28T00:56:22.355Z,15
2016-05-28T00:57:22.375Z,15.04
2016-05-28T00:58:22.392Z,15.02
2016-05-28T00:59:22.410Z,14.99
2016-05-28T01:00:22.445Z,14.94
2016-05-28T01:01:22.463Z,14.81
2016-05-28T01:02:22.496Z,14.85
2016-05-28T01:03:22.546Z,14.84
2016-05-28T01:04:22.518Z,14.81
2016-05-28T01:05:22.614Z,14.7
2016-05-28T01:06:22.585Z,14.82
2016-05-28T01:07:22.557Z,14.78
2016-05-28T01:08:22.435Z,14.81
2016-05-28T01:09:22.469Z,14.77
2016-05-28T01:10:22.769Z,14.73
2016-05-28T01:11:22.489Z,14.78
2016-05-28T01:12:22.726Z,14.77
2016-05-28T01:13:22.682Z,14.79
2016-05-28T01:14:22.763Z,14.73
2016-05-28T01:15:22.562Z,14.77
2016-05-28T01:16:22.754Z,14.72
2016-05-28T01:17:22.756Z,14.69
2016-05-28T01:18:22.634Z,14.66
2016-05-28T01:19:22.901Z,14.51
2016-05-28T01:20:23.295Z,14.55
2016-05-28T01:21:22.860Z,14.63
2016-05-28T01:22:22.862Z,14.5
2016-05-28T01:23:22.865Z,14.6
2016-05-28T01:24:22.884Z,14.47
2016-05-28T01:25:22.917Z,14.5
2016-05-28T01:26:22.936Z,14.4
2016-05-28T01:27:22.938Z,14.44
2016-05-28T01:28:22.989Z,14.51
2016-05-28T01:29:22.992Z,14.5
2016-05-28T01:30:23.009Z,14.41
2016-05-28T01:31:23.028Z,14.4
2016-05-28T01:32:23.046Z,14.43
2016-05-28T01:33:22.752Z,14.5
2016-05-28T01:34:23.083Z,14.48
2016-05-28T01:35:22.944Z,14.33
2016-05-28T01:36:23.104Z,14.36
2016-05-28T01:37:22.982Z,14.58
2016-05-28T01:38:23.155Z,14.43
2016-05-28T01:39:23.190Z,14.41
2016-05-28T01:40:23.035Z,14.44
2016-05-28T01:41:23.211Z,14.44
2016-05-28T01:42:23.260Z,14.47
2016-05-28T01:43:23.294Z,14.41
2016-05-28T01:44:23.126Z,14.48
2016-05-28T01:45:23.299Z,14.54
2016-05-28T01:46:23.334Z,14.44
2016-05-28T01:47:23.352Z,14.43
2016-05-28T01:48:23.198Z,14.51
2016-05-28T01:49:23.232Z,14.54
2016-05-28T01:50:23.235Z,14.5
2016-05-28T01:51:23.237Z,14.5
2016-05-28T01:52:23.256Z,14.47
2016-05-28T01:53:23.430Z,14.36
2016-05-28T01:54:23.464Z,14.41
2016-05-28T01:55:23.483Z,14.29
2016-05-28T01:56:23.517Z,14.28
2016-05-28T01:57:23.504Z,14.29
2016-05-28T01:58:23.553Z,14.32
2016-05-28T01:59:23.556Z,14.25
2016-05-28T02:00:23.575Z,14.32
2016-05-28T02:01:23.577Z,14.29
2016-05-28T02:02:23.611Z,14.33
2016-05-28T02:03:23.629Z,14.29
2016-05-28T02:04:23.772Z,14.26
2016-05-28T02:05:23.510Z,14.17
2016-05-28T02:06:23.528Z,14.12
2016-05-28T02:07:23.703Z,14.2
2016-05-28T02:08:23.736Z,14.17
2016-05-28T02:09:23.739Z,14.08
2016-05-28T02:10:23.774Z,14.08
2016-05-28T02:11:23.777Z,14.04
2016-05-28T02:12:23.794Z,14.1
2016-05-28T02:13:23.656Z,14.03
2016-05-28T02:14:23.674Z,14
2016-05-28T02:15:23.849Z,13.97
2016-05-28T02:16:23.883Z,14.08
2016-05-28T02:17:23.885Z,14
2016-05-28T02:18:23.904Z,13.99
2016-05-28T02:19:23.765Z,13.99
2016-05-28T02:20:23.801Z,13.97
2016-05-28T02:21:23.959Z,14.03
2016-05-28T02:22:24.008Z,14.03
2016-05-28T02:23:23.856Z,13.95
2016-05-28T02:24:23.858Z,14
2016-05-28T02:25:24.048Z,13.95
2016-05-28T02:26:24.051Z,13.95
2016-05-28T02:27:23.928Z,13.99
2016-05-28T02:28:24.119Z,14.04
2016-05-28T02:29:24.106Z,14.03
2016-05-28T02:30:24.139Z,14.04
2016-05-28T02:31:24.173Z,14.04
2016-05-28T02:32:24.192Z,13.97
2016-05-28T02:33:24.210Z,13.92
2016-05-28T02:34:24.228Z,13.97
2016-05-28T02:35:24.074Z,13.93
2016-05-28T02:36:24.265Z,13.86
2016-05-28T02:37:24.269Z,13.89
2016-05-28T02:38:24.286Z,13.83
2016-05-28T02:39:24.289Z,13.89
2016-05-28T02:40:24.307Z,13.87
2016-05-28T02:41:24.341Z,13.95
2016-05-28T02:42:24.202Z,13.92
2016-05-28T02:43:24.378Z,13.89
2016-05-28T02:44:24.412Z,13.87
2016-05-28T02:45:24.398Z,14
2016-05-28T02:46:24.433Z,13.99
2016-05-28T02:47:24.310Z,13.93
2016-05-28T02:48:24.313Z,13.97
2016-05-28T02:49:24.815Z,14
2016-05-28T02:50:25.021Z,14.05
2016-05-28T02:51:24.524Z,14.1
2016-05-28T02:52:24.559Z,14.08
2016-05-28T02:53:24.577Z,14.1
2016-05-28T02:54:24.578Z,14.1
2016-05-28T02:55:24.597Z,14.15
2016-05-28T02:56:24.615Z,14.07
2016-05-28T02:57:24.493Z,14.12
2016-05-28T02:58:24.667Z,14.17
2016-05-28T02:59:24.670Z,14.15
2016-05-28T03:00:24.689Z,14.25
2016-05-28T03:01:24.722Z,14.17
2016-05-28T03:02:24.586Z,14.22
2016-05-28T03:03:24.744Z,14.26
2016-05-28T03:04:24.778Z,14.2
2016-05-28T03:05:24.624Z,14.17
2016-05-28T03:06:24.783Z,14.23
2016-05-28T03:07:24.832Z,14.22
2016-05-28T03:08:24.852Z,14.28
2016-05-28T03:09:24.869Z,14.2
2016-05-28T03:10:24.872Z,14.2
2016-05-28T03:11:24.938Z,14.17
2016-05-28T03:12:24.925Z,14.17
2016-05-28T03:13:24.943Z,14.28
2016-05-28T03:14:24.977Z,14.22
2016-05-28T03:15:24.979Z,14.29
2016-05-28T03:16:24.998Z,14.23
2016-05-28T03:17:25.015Z,14.33
2016-05-28T03:18:25.035Z,14.2
2016-05-28T03:19:25.506Z,14.32
2016-05-28T03:20:25.384Z,14.28
2016-05-28T03:21:25.089Z,14.35
2016-05-28T03:22:25.107Z,14.3
2016-05-28T03:23:25.142Z,14.25
2016-05-28T03:24:25.129Z,14.41
2016-05-28T03:25:25.162Z,14.37
2016-05-28T03:26:25.165Z,14.54
2016-05-28T03:27:25.183Z,14.47
2016-05-28T03:28:25.217Z,14.55
2016-05-28T03:29:25.251Z,14.5
2016-05-28T03:30:25.270Z,14.48
2016-05-28T03:31:25.272Z,14.59
2016-05-28T03:32:25.322Z,14.54
2016-05-28T03:33:25.309Z,14.59
2016-05-28T03:34:25.671Z,14.55
2016-05-28T03:35:25.564Z,14.63
2016-05-28T03:36:25.364Z,14.69
2016-05-28T03:37:25.397Z,14.78
2016-05-28T03:38:25.400Z,14.77
2016-05-28T03:39:25.418Z,14.88
2016-05-28T03:40:25.421Z,14.85
2016-05-28T03:41:25.472Z,14.78
2016-05-28T03:42:25.333Z,14.85
2016-05-28T03:43:25.507Z,14.91
2016-05-28T03:44:25.527Z,14.88
2016-05-28T03:45:25.544Z,14.94
2016-05-28T03:46:25.579Z,14.99
2016-05-28T03:47:25.581Z,15.07
2016-05-28T03:48:25.599Z,15.1
2016-05-28T03:49:25.618Z,15.09
2016-05-28T03:50:25.652Z,15.21
2016-05-28T03:51:25.638Z,15.21
2016-05-28T03:52:25.673Z,15.25
2016-05-28T03:53:25.519Z,15.27
2016-05-28T03:54:25.694Z,15.31
2016-05-28T03:55:25.728Z,15.37
2016-05-28T03:56:25.745Z,15.39
2016-05-28T03:57:25.764Z,15.46
2016-05-28T03:58:25.782Z,15.55
2016-05-28T03:59:25.675Z,15.58
2016-05-28T04:00:25.834Z,15.47
2016-05-28T04:01:25.681Z,15.54
2016-05-28T04:02:25.715Z,15.55
2016-05-28T04:03:25.875Z,15.59
2016-05-28T04:04:25.908Z,15.59
2016-05-28T04:05:26.020Z,15.62
2016-05-28T04:06:25.945Z,15.61
2016-05-28T04:07:25.963Z,15.59
2016-05-28T04:08:25.980Z,15.61
2016-05-28T04:09:26.016Z,15.59
2016-05-28T04:10:26.018Z,15.59
2016-05-28T04:11:25.896Z,15.61
2016-05-28T04:12:25.742Z,15.59
2016-05-28T04:13:26.088Z,15.62
2016-05-28T04:14:26.091Z,15.67
2016-05-28T04:15:26.110Z,15.64
2016-05-28T04:16:26.144Z,15.65
2016-05-28T04:17:25.990Z,15.75
2016-05-28T04:18:26.008Z,15.7
2016-05-28T04:19:26.199Z,15.65
2016-05-28T04:20:26.654Z,15.65
2016-05-28T04:21:26.235Z,15.7
2016-05-28T04:22:26.253Z,15.67
2016-05-28T04:23:26.271Z,15.68
2016-05-28T04:24:26.134Z,15.67
2016-05-28T04:25:26.309Z,15.77
2016-05-28T04:26:26.342Z,15.79
2016-05-28T04:27:26.345Z,15.79
2016-05-28T04:28:26.347Z,15.79
2016-05-28T04:29:26.397Z,15.84
2016-05-28T04:30:26.400Z,15.86
2016-05-28T04:31:26.433Z,15.91
2016-05-28T04:32:26.436Z,15.97
2016-05-28T04:33:26.314Z,15.92
2016-05-28T04:34:26.800Z,15.98
2016-05-28T04:35:27.272Z,15.98
2016-05-28T04:36:26.369Z,15.94
2016-05-28T04:37:26.528Z,16.04
2016-05-28T04:38:26.578Z,16.08
2016-05-28T04:39:26.580Z,16.04
2016-05-28T04:40:26.442Z,16
2016-05-28T04:41:26.633Z,16.08
2016-05-28T04:42:26.666Z,16.05
2016-05-28T04:43:26.669Z,16.13
2016-05-28T04:44:26.688Z,16.12
2016-05-28T04:45:26.706Z,16.23
2016-05-28T04:46:26.724Z,16.31
2016-05-28T04:47:26.743Z,16.31
2016-05-28T04:48:26.746Z,16.26
2016-05-28T04:49:26.841Z,16.33
2016-05-28T04:50:26.813Z,16.41
2016-05-28T04:51:26.816Z,16.58
2016-05-28T04:52:26.834Z,16.47
2016-05-28T04:53:26.712Z,16.58
2016-05-28T04:54:26.871Z,16.54
2016-05-28T04:55:26.732Z,16.68
2016-05-28T04:56:26.907Z,16.68
2016-05-28T04:57:26.940Z,16.74
2016-05-28T04:58:26.803Z,16.75
2016-05-28T04:59:26.837Z,16.76
2016-05-28T05:00:26.996Z,16.75
2016-05-28T05:01:27.030Z,16.93
2016-05-28T05:02:27.048Z,16.97
2016-05-28T05:03:27.067Z,17.02
2016-05-28T05:04:26.928Z,17.06
2016-05-28T05:05:27.119Z,17.22
2016-05-28T05:06:27.136Z,17.24
2016-05-28T05:07:27.139Z,17.49
2016-05-28T05:08:27.152Z,17.56
2016-05-28T05:09:27.195Z,17.54
2016-05-28T05:10:27.269Z,17.63
2016-05-28T05:11:27.311Z,17.76
2016-05-28T05:12:27.338Z,17.74
2016-05-28T05:13:27.376Z,17.79
2016-05-28T05:14:27.404Z,17.87
2016-05-28T05:15:27.290Z,17.87
2016-05-28T05:16:27.473Z,17.9
2016-05-28T05:17:27.500Z,18.01
2016-05-28T05:18:27.526Z,18.05
2016-05-28T05:19:27.578Z,18.11
2016-05-28T05:20:27.489Z,17.95
2016-05-28T05:21:27.590Z,17.89
2016-05-28T05:22:27.627Z,17.72
2016-05-28T05:23:27.647Z,17.7
2016-05-28T05:24:27.683Z,17.6
2016-05-28T05:25:27.670Z,17.6
2016-05-28T05:26:27.721Z,17.57
2016-05-28T05:27:27.725Z,17.68
2016-05-28T05:28:27.759Z,17.67
2016-05-28T05:29:27.606Z,17.72
2016-05-28T05:30:27.797Z,17.71
2016-05-28T05:31:27.801Z,17.68
2016-05-28T05:32:27.819Z,17.7
2016-05-28T05:33:27.869Z,17.71
2016-05-28T05:34:28.152Z,17.68
2016-05-28T05:35:27.967Z,17.68
2016-05-28T05:36:27.908Z,17.7
2016-05-28T05:37:27.926Z,17.76
2016-05-28T05:38:27.804Z,17.7
2016-05-28T05:39:27.962Z,17.71
2016-05-28T05:40:27.996Z,17.71
2016-05-28T05:41:28.015Z,17.86
2016-05-28T05:42:28.049Z,17.82
2016-05-28T05:43:27.926Z,17.86
2016-05-28T05:44:27.929Z,17.85
2016-05-28T05:45:27.964Z,17.97
2016-05-28T05:46:28.123Z,18.03
2016-05-28T05:47:28.140Z,18.03
2016-05-28T05:48:27.986Z,18.15
2016-05-28T05:49:28.178Z,18.13
2016-05-28T05:50:28.055Z,18.22
2016-05-28T05:51:28.230Z,18.15
2016-05-28T05:52:28.233Z,18.25
2016-05-28T05:53:28.266Z,18.19
2016-05-28T05:54:28.316Z,18.25
2016-05-28T05:55:28.318Z,18.23
2016-05-28T05:56:28.165Z,18.2
2016-05-28T05:57:28.339Z,18.2
2016-05-28T05:58:28.374Z,18.26
2016-05-28T05:59:28.361Z,18.2
2016-05-28T06:00:28.238Z,18.19
2016-05-28T06:01:28.413Z,18.18
2016-05-28T06:02:28.446Z,18.2
2016-05-28T06:03:28.466Z,18.22
2016-05-28T06:04:28.890Z,18.2
2016-05-28T06:05:28.580Z,18.13
2016-05-28T06:06:28.535Z,18.15
2016-05-28T06:07:28.568Z,18.08
2016-05-28T06:08:28.587Z,18.19
2016-05-28T06:09:28.622Z,18.2
2016-05-28T06:10:28.624Z,18.11
2016-05-28T06:11:28.673Z,18.07
2016-05-28T06:12:28.645Z,18.08
2016-05-28T06:13:28.679Z,18.11
2016-05-28T06:14:28.682Z,18.2
2016-05-28T06:15:28.731Z,18.15
2016-05-28T06:16:28.734Z,18.16
2016-05-28T06:17:28.768Z,18.22
2016-05-28T06:18:28.787Z,18.23
2016-05-28T06:19:28.820Z,18.18
2016-05-28T06:20:29.026Z,18.13
2016-05-28T06:21:28.842Z,18.33
2016-05-28T06:22:28.844Z,18.18
2016-05-28T06:23:28.862Z,18.34
2016-05-28T06:24:28.897Z,18.29
2016-05-28T06:25:28.914Z,18.33
2016-05-28T06:26:28.949Z,18.38
2016-05-28T06:27:28.952Z,18.38
2016-05-28T06:28:28.985Z,18.45
2016-05-28T06:29:28.847Z,18.53
2016-05-28T06:30:29.022Z,18.6
2016-05-28T06:31:29.040Z,18.71
2016-05-28T06:32:29.058Z,18.89
2016-05-28T06:33:29.093Z,19.02
2016-05-28T06:34:28.971Z,19.3
2016-05-28T06:35:29.426Z,19.49
2016-05-28T06:36:29.132Z,19.63
2016-05-28T06:37:29.181Z,19.79
2016-05-28T06:38:29.184Z,19.92
2016-05-28T06:39:29.218Z,20.09
2016-05-28T06:40:29.237Z,20.11
2016-05-28T06:41:29.254Z,20.24
2016-05-28T06:42:29.117Z,20.24
2016-05-28T06:43:29.166Z,20.28
2016-05-28T06:44:29.012Z,20.32
2016-05-28T06:45:29.203Z,20.36
2016-05-28T06:46:29.345Z,20.43
2016-05-28T06:47:29.224Z,20.63
2016-05-28T06:48:29.398Z,20.72
2016-05-28T06:49:30.104Z,20.84
2016-05-28T06:50:29.731Z,20.95
2016-05-28T06:51:29.156Z,20.97
2016-05-28T06:52:29.503Z,21.02
2016-05-28T06:53:29.521Z,21
2016-05-28T06:54:29.540Z,21.02
2016-05-28T06:55:29.558Z,20.84
2016-05-28T06:56:29.591Z,20.84
2016-05-28T06:57:29.642Z,20.85
2016-05-28T06:58:29.629Z,20.88
2016-05-28T06:59:29.491Z,20.85
2016-05-28T07:00:29.665Z,20.69
2016-05-28T07:01:29.683Z,20.65
2016-05-28T07:02:29.702Z,20.52
2016-05-28T07:03:29.735Z,20.58
2016-05-28T07:04:30.285Z,20.37
2016-05-28T07:05:29.632Z,20.28
2016-05-28T07:06:29.806Z,20.25
2016-05-28T07:07:29.840Z,20.28
2016-05-28T07:08:29.827Z,20.25
2016-05-28T07:09:29.861Z,20.29
2016-05-28T07:10:29.895Z,20.16
2016-05-28T07:11:29.913Z,20.22
2016-05-28T07:12:29.915Z,20.19
2016-05-28T07:13:29.965Z,20.14
2016-05-28T07:14:29.812Z,20.1
2016-05-28T07:15:30.001Z,19.96
2016-05-28T07:16:29.865Z,19.96
2016-05-28T07:17:29.882Z,20
2016-05-28T07:18:30.057Z,19.96
2016-05-28T07:19:30.091Z,20.07
2016-05-28T07:20:30.156Z,20.02
2016-05-28T07:21:30.158Z,20
2016-05-28T07:22:30.162Z,20.07
2016-05-28T07:23:30.180Z,20.16
2016-05-28T07:24:30.042Z,20.16
2016-05-28T07:25:30.217Z,20.18
2016-05-28T07:26:30.219Z,20.19
2016-05-28T07:27:30.253Z,20.13
2016-05-28T07:28:30.255Z,20.16
2016-05-28T07:29:30.322Z,20.19
2016-05-28T07:30:30.308Z,20.13
2016-05-28T07:31:30.373Z,20.22
2016-05-28T07:32:30.377Z,20.18
2016-05-28T07:33:30.395Z,20.16
2016-05-28T07:34:30.085Z,20.18
2016-05-28T07:35:30.884Z,20.18
2016-05-28T07:36:30.480Z,20.16
2016-05-28T07:37:30.468Z,20.28
2016-05-28T07:38:30.485Z,20.21
2016-05-28T07:39:30.504Z,20.32
2016-05-28T07:40:30.523Z,20.34
2016-05-28T07:41:30.572Z,20.37
2016-05-28T07:42:30.590Z,20.37
2016-05-28T07:43:30.452Z,20.56
2016-05-28T07:44:30.627Z,20.6
2016-05-28T07:45:30.645Z,20.67
2016-05-28T07:46:30.664Z,20.66
2016-05-28T07:47:30.697Z,20.85
2016-05-28T07:48:30.715Z,20.93
2016-05-28T07:49:31.000Z,20.9
2016-05-28T07:50:31.253Z,20.93
2016-05-28T07:51:30.786Z,20.93
2016-05-28T07:52:30.805Z,20.88
2016-05-28T07:53:30.823Z,21.02
2016-05-28T07:54:30.669Z,20.99
2016-05-28T07:55:30.875Z,21.17
2016-05-28T07:56:30.894Z,21.18
2016-05-28T07:57:30.756Z,21.32
2016-05-28T07:58:30.947Z,21.35
2016-05-28T07:59:30.964Z,21.4
2016-05-28T08:00:30.982Z,21.45
2016-05-28T08:01:31.001Z,21.51
2016-05-28T08:02:31.035Z,21.57
2016-05-28T08:03:31.053Z,21.72
2016-05-28T08:04:31.243Z,21.69
2016-05-28T08:05:31.136Z,21.7
2016-05-28T08:06:31.093Z,21.76
2016-05-28T08:07:31.126Z,21.96
2016-05-28T08:08:31.160Z,22.07
2016-05-28T08:09:31.179Z,22.17
2016-05-28T08:10:31.197Z,22.17
2016-05-28T08:11:31.215Z,22.17
2016-05-28T08:12:31.234Z,22.26
2016-05-28T08:13:31.283Z,22.15
2016-05-28T08:14:31.301Z,22.18
2016-05-28T08:15:31.320Z,22.2
2016-05-28T08:16:31.354Z,22.3
2016-05-28T08:17:31.356Z,22.25
2016-05-28T08:18:31.218Z,22.29
2016-05-28T08:19:31.409Z,22.41
2016-05-28T08:20:31.458Z,22.41
2016-05-28T08:21:31.446Z,22.59
2016-05-28T08:22:31.479Z,22.59
2016-05-28T08:23:31.497Z,22.54
2016-05-28T08:24:31.656Z,22.6
2016-05-28T08:25:31.550Z,22.48
2016-05-28T08:26:31.396Z,22.54
2016-05-28T08:27:31.587Z,22.65
2016-05-28T08:28:35.214Z,22.7
2016-05-28T08:29:31.623Z,22.76
2016-05-28T08:30:31.642Z,22.76
2016-05-28T08:31:31.660Z,22.83
2016-05-28T08:32:31.694Z,22.76
2016-05-28T08:33:31.743Z,22.75
2016-05-28T08:34:32.855Z,22.9
2016-05-28T08:35:32.202Z,22.83
2016-05-28T08:36:31.813Z,22.72
2016-05-28T08:37:31.816Z,22.91
2016-05-28T08:38:31.679Z,22.96
2016-05-28T08:39:31.869Z,23.03
2016-05-28T08:40:31.903Z,23.09
2016-05-28T08:41:31.905Z,23.08
2016-05-28T08:42:31.783Z,23.05
2016-05-28T08:43:33.754Z,23.1
2016-05-28T08:44:31.820Z,23.09
2016-05-28T08:45:31.994Z,23.1
2016-05-28T08:46:32.013Z,23.2
2016-05-28T08:47:31.874Z,23.2
2016-05-28T08:48:35.174Z,23.12
2016-05-28T08:49:31.943Z,23.13
2016-05-28T08:50:32.337Z,23.24
2016-05-28T08:51:32.135Z,23.28
2016-05-28T08:52:32.356Z,23.12
2016-05-28T08:53:32.173Z,23.2
2016-05-28T08:54:32.206Z,23.44
2016-05-28T08:55:32.225Z,23.51
2016-05-28T08:56:32.274Z,23.63
2016-05-28T08:57:32.105Z,23.46
2016-05-28T08:58:32.122Z,23.44
2016-05-28T08:59:32.172Z,23.34
2016-05-28T09:00:32.191Z,23.27
2016-05-28T09:01:32.366Z,23.21
2016-05-28T09:02:32.399Z,23.13
2016-05-28T09:03:32.418Z,23.18
2016-05-28T09:04:32.280Z,23.32
2016-05-28T09:05:32.392Z,23.32
2016-05-28T09:06:32.488Z,23.36
2016-05-28T09:07:32.507Z,23.44
2016-05-28T09:08:32.509Z,23.46
2016-05-28T09:09:32.387Z,23.4
2016-05-28T09:10:32.577Z,23.47
2016-05-28T09:11:32.439Z,23.54
2016-05-28T09:12:32.629Z,23.55
2016-05-28T09:13:32.648Z,23.47
2016-05-28T09:14:32.510Z,23.48
2016-05-28T09:15:32.700Z,23.46
2016-05-28T09:16:32.734Z,23.56
2016-05-28T09:17:32.596Z,23.66
2016-05-28T09:18:32.740Z,23.73
2016-05-28T09:19:32.867Z,23.81
2016-05-28T09:20:33.260Z,23.84
2016-05-28T09:21:32.840Z,23.84
2016-05-28T09:22:32.860Z,23.81
2016-05-28T09:23:32.862Z,23.84
2016-05-28T09:24:32.928Z,23.87
2016-05-28T09:25:32.931Z,23.76
2016-05-28T09:26:32.949Z,23.78
2016-05-28T09:27:32.982Z,23.84
2016-05-28T09:28:33.000Z,23.91
2016-05-28T09:29:33.019Z,23.87
2016-05-28T09:30:32.897Z,23.99
2016-05-28T09:31:32.915Z,24.18
2016-05-28T09:32:32.934Z,24.35
2016-05-28T09:33:33.107Z,24.4
2016-05-28T09:34:33.250Z,24.36
2016-05-28T09:35:33.019Z,24.32
2016-05-28T09:36:33.022Z,24.33
2016-05-28T09:37:33.196Z,24.33
2016-05-28T09:38:33.230Z,24.29
2016-05-28T09:39:33.108Z,24.28
2016-05-28T09:40:33.282Z,24.32
2016-05-28T09:41:33.161Z,24.29
2016-05-28T09:42:33.319Z,24.26
2016-05-28T09:43:33.354Z,24.24
2016-05-28T09:44:33.371Z,24.3
2016-05-28T09:45:33.390Z,24.43
2016-05-28T09:46:33.408Z,24.43
2016-05-28T09:47:33.443Z,24.5
2016-05-28T09:48:33.461Z,24.35
2016-05-28T09:49:33.526Z,24.32
2016-05-28T09:50:33.559Z,24.32
2016-05-28T09:51:33.546Z,24.36
2016-05-28T09:52:33.565Z,24.43
2016-05-28T09:53:33.614Z,24.58
2016-05-28T09:54:33.617Z,24.69
2016-05-28T09:55:33.651Z,24.84
2016-05-28T09:56:34.060Z,24.88
2016-05-28T09:57:35.484Z,24.91
2016-05-28T09:58:34.597Z,24.89
2016-05-28T09:59:33.725Z,24.92
2016-05-28T10:00:33.743Z,24.93
2016-05-28T10:01:33.620Z,24.95
2016-05-28T10:02:33.638Z,24.85
2016-05-28T10:03:33.828Z,24.99
2016-05-28T10:04:34.676Z,25.08
2016-05-28T10:05:33.725Z,25.01
2016-05-28T10:06:33.899Z,24.96
2016-05-28T10:07:33.747Z,25.13
2016-05-28T10:08:33.780Z,25.14
2016-05-28T10:09:33.970Z,25.06
2016-05-28T10:10:33.989Z,25.08
2016-05-28T10:11:34.008Z,25.1
2016-05-28T10:12:33.885Z,25.04
2016-05-28T10:13:34.059Z,25.04
2016-05-28T10:14:34.093Z,25.18
2016-05-28T10:15:34.127Z,25.16
2016-05-28T10:16:34.146Z,25.18
2016-05-28T10:17:34.008Z,25.16
2016-05-28T10:18:34.198Z,25.31
2016-05-28T10:19:34.872Z,25.33
2016-05-28T10:20:34.421Z,25.35
2016-05-28T10:21:34.252Z,25.38
2016-05-28T10:22:34.974Z,25.41
2016-05-28T10:23:34.305Z,25.48
2016-05-28T10:24:34.323Z,25.53
2016-05-28T10:25:34.356Z,25.77
2016-05-28T10:26:34.360Z,25.77
2016-05-28T10:27:35.831Z,25.91
2016-05-28T10:28:34.443Z,25.98
2016-05-28T10:29:34.461Z,26.07
2016-05-28T10:30:34.480Z,26.1
2016-05-28T10:31:34.483Z,25.96
2016-05-28T10:32:34.392Z,25.95
2016-05-28T10:33:34.550Z,25.81
2016-05-28T10:34:34.772Z,25.59
2016-05-28T10:35:35.587Z,25.29
2016-05-28T10:36:34.464Z,25.07
2016-05-28T10:37:34.499Z,24.92
2016-05-28T10:38:34.516Z,24.88
2016-05-28T10:39:34.707Z,24.84
2016-05-28T10:40:34.772Z,24.89
2016-05-28T10:41:34.603Z,24.84
2016-05-28T10:42:34.621Z,25.01
2016-05-28T10:43:34.483Z,25.04
2016-05-28T10:44:34.814Z,25.01
2016-05-28T10:45:34.832Z,25.08
2016-05-28T10:46:34.866Z,25.1
2016-05-28T10:47:34.885Z,25.28
2016-05-28T10:48:34.918Z,25.41
2016-05-28T10:49:35.359Z,25.36
2016-05-28T10:50:36.518Z,25.43
2016-05-28T10:51:34.990Z,25.47
2016-05-28T10:52:34.710Z,25.48
2016-05-28T10:53:35.042Z,25.6
2016-05-28T10:54:35.060Z,25.58
2016-05-28T10:55:35.094Z,25.44
2016-05-28T10:56:35.112Z,25.36
2016-05-28T10:57:35.131Z,25.48
2016-05-28T10:58:35.149Z,25.53
2016-05-28T10:59:35.183Z,25.59
2016-05-28T11:00:38.076Z,25.66
2016-05-28T11:01:35.078Z,25.85
2016-05-28T11:02:35.254Z,25.95
2016-05-28T11:03:35.287Z,26
2016-05-28T11:04:36.509Z,26
2016-05-28T11:05:35.277Z,25.98
2016-05-28T11:06:35.358Z,26.09
2016-05-28T11:07:35.376Z,26.1
2016-05-28T11:08:35.394Z,26.16
2016-05-28T11:09:35.428Z,26.34
2016-05-28T11:10:35.291Z,26.55
2016-05-28T11:11:35.465Z,26.71
2016-05-28T11:12:35.499Z,26.9
2016-05-28T11:13:35.517Z,27.11
2016-05-28T11:14:35.520Z,27.22
2016-05-28T11:15:35.601Z,27.39
2016-05-28T11:16:35.604Z,27.47
2016-05-28T11:17:35.638Z,27.6
2016-05-28T11:18:35.656Z,27.8
2016-05-28T11:19:35.705Z,27.98
2016-05-28T11:20:35.568Z,28.08
2016-05-28T11:21:35.743Z,28.14
2016-05-28T11:22:35.761Z,28.17
2016-05-28T11:23:35.793Z,28.3
2016-05-28T11:24:35.796Z,28.32
2016-05-28T11:25:35.831Z,28.25
2016-05-28T11:26:35.849Z,28.15
2016-05-28T11:27:38.211Z,28.19
2016-05-28T11:28:35.886Z,28.1
2016-05-28T11:29:35.935Z,28.08
2016-05-28T11:30:35.954Z,28.15
2016-05-28T11:31:35.987Z,28.1
2016-05-28T11:32:37.381Z,28.22
2016-05-28T11:33:36.025Z,28.17
2016-05-28T11:34:36.778Z,28.17
2016-05-28T11:35:36.842Z,28.05
2016-05-28T11:36:35.969Z,28.1
2016-05-28T11:37:38.769Z,28.11
2016-05-28T11:38:36.163Z,28.14
2016-05-28T11:39:36.197Z,27.98
2016-05-28T11:40:36.199Z,27.98
2016-05-28T11:41:36.250Z,27.98
2016-05-28T11:42:38.377Z,27.89
2016-05-28T11:43:36.285Z,28.07
2016-05-28T11:44:36.304Z,28.04
2016-05-28T11:45:36.353Z,28.1
2016-05-28T11:46:36.372Z,28
2016-05-28T11:47:37.922Z,28.1
2016-05-28T11:48:36.268Z,28.07
2016-05-28T11:49:37.051Z,28.07
2016-05-28T11:50:36.930Z,28.19
2016-05-28T11:51:36.494Z,28.35
2016-05-28T11:52:38.232Z,28.37
2016-05-28T11:53:36.546Z,28.41
2016-05-28T11:54:36.565Z,28.37
2016-05-28T11:55:36.615Z,28.29
2016-05-28T11:56:36.633Z,28.15
2016-05-28T11:57:39.057Z,28.04
2016-05-28T11:58:36.685Z,27.78
2016-05-28T11:59:36.734Z,27.67
2016-05-28T12:00:36.738Z,27.59
2016-05-28T12:01:36.600Z,27.44
2016-05-28T12:02:39.024Z,27.2
2016-05-28T12:03:36.823Z,27.15
2016-05-28T12:04:36.687Z,27.02
2016-05-28T12:05:36.892Z,27.05
2016-05-28T12:06:36.878Z,27.11
2016-05-28T12:07:41.054Z,27.1
2016-05-28T12:08:36.930Z,27.03
2016-05-28T12:09:36.981Z,27.03
2016-05-28T12:10:36.828Z,27.11
2016-05-28T12:11:37.017Z,27.03
2016-05-28T12:12:37.597Z,27.08
2016-05-28T12:13:37.086Z,27.03
2016-05-28T12:14:37.088Z,27.03
2016-05-28T12:15:37.200Z,27.05
2016-05-28T12:16:37.124Z,27.32
2016-05-28T12:17:39.674Z,27.51
2016-05-28T12:18:37.192Z,27.64
2016-05-28T12:19:37.727Z,27.74
2016-05-28T12:20:38.213Z,27.77
2016-05-28T12:21:37.325Z,27.86
2016-05-28T12:23:37.643Z,28.14
2016-05-28T12:24:37.365Z,28.05
2016-05-28T12:25:37.399Z,28.17
2016-05-28T12:26:37.385Z,28.35
2016-05-28T12:27:51.498Z,28.29
2016-05-28T12:28:37.297Z,28.19
2016-05-28T12:29:37.472Z,28.15
2016-05-28T12:30:37.506Z,27.96
2016-05-28T12:31:37.508Z,27.92
2016-05-28T12:32:43.167Z,27.85
2016-05-28T12:33:37.576Z,27.78
2016-05-28T12:34:39.751Z,27.78
2016-05-28T12:35:51.691Z,27.67
2016-05-28T12:36:37.663Z,27.58
2016-05-28T12:37:42.743Z,27.47
2016-05-28T12:38:51.762Z,27.27
2016-05-28T12:39:51.812Z,27.14
2016-05-28T12:40:37.767Z,27.08
2016-05-28T12:41:37.801Z,27.07
2016-05-28T12:42:41.647Z,26.99
2016-05-28T12:43:37.838Z,26.96
2016-05-28T12:44:37.872Z,26.84
2016-05-28T12:45:37.905Z,26.71
2016-05-28T12:46:37.909Z,26.53
2016-05-28T12:47:37.942Z,26.45
2016-05-28T12:48:37.960Z,26.45
2016-05-28T12:49:37.994Z,26.34
2016-05-28T12:50:52.075Z,26.38
2016-05-28T12:51:38.046Z,26.36
2016-05-28T12:52:40.143Z,26.28
2016-05-28T12:53:38.396Z,26.26
2016-05-28T12:55:06.226Z,26.1
2016-05-28T12:55:38.135Z,26.23
2016-05-28T12:56:38.154Z,26.16
2016-05-28T12:57:40.187Z,26.18